sensor_id;sensor_type;location;lat;lon;timestamp;pressure;altitude;pressure_sealevel;temperature;humidity
35878;BME280;21982;49.804;24.072;2023-08-12T00:00:04;97847.44;;;16.41;59.82
35878;BME280;21982;49.804;24.072;2023-08-12T00:02:48;97874.75;;;16.50;59.74
35878;BME280;21982;49.804;24.072;2023-08-12T00:05:13;97803.97;;;16.08;59.59
35878;BME280;21982;49.804;24.072;2023-08-12T00:07:40;97872.91;;;16.51;59.62
35878;BME280;21982;49.804;24.072;2023-08-12T00:10:10;97880.09;;;16.50;59.54
35878;BME280;21982;49.804;24.072;2023-08-12T00:12:35;97874.75;;;16.50;59.69
35878;BME280;21982;49.804;24.072;2023-08-12T00:15:02;97872.69;;;16.52;59.10
35878;BME280;21982;49.804;24.072;2023-08-12T00:17:29;97797.63;;;16.02;58.90
35878;BME280;21982;49.804;24.072;2023-08-12T00:19:55;97868.38;;;16.51;58.89
35878;BME280;21982;49.804;24.072;2023-08-12T00:22:22;97862.81;;;16.53;58.63
35878;BME280;21982;49.804;24.072;2023-08-12T00:24:47;97809.31;;;16.15;58.44
35878;BME280;21982;49.804;24.072;2023-08-12T00:27:12;97865.72;;;16.51;58.37
35878;BME280;21982;49.804;24.072;2023-08-12T00:29:38;97752.50;;;15.81;58.18
35878;BME280;21982;49.804;24.072;2023-08-12T00:32:03;97767.88;;;15.92;58.17
35878;BME280;21982;49.804;24.072;2023-08-12T00:34:29;97839.00;;;16.38;58.11
35878;BME280;21982;49.804;24.072;2023-08-12T00:36:54;97776.28;;;15.96;57.90
35878;BME280;21982;49.804;24.072;2023-08-12T00:39:19;97863.63;;;16.53;58.00
35878;BME280;21982;49.804;24.072;2023-08-12T00:41:45;97857.28;;;16.48;58.03
35878;BME280;21982;49.804;24.072;2023-08-12T00:44:11;97867.34;;;16.52;57.86
35878;BME280;21982;49.804;24.072;2023-08-12T00:46:38;97868.56;;;16.56;57.77
35878;BME280;21982;49.804;24.072;2023-08-12T00:49:05;97867.34;;;16.52;57.90
35878;BME280;21982;49.804;24.072;2023-08-12T00:51:30;97861.38;;;16.50;57.88
35878;BME280;21982;49.804;24.072;2023-08-12T00:53:57;97810.75;;;16.17;57.71
35878;BME280;21982;49.804;24.072;2023-08-12T00:56:23;97868.81;;;16.48;57.98
35878;BME280;21982;49.804;24.072;2023-08-12T00:58:50;97791.25;;;16.03;58.26
35878;BME280;21982;49.804;24.072;2023-08-12T01:01:16;97857.72;;;16.45;58.07
35878;BME280;21982;49.804;24.072;2023-08-12T01:03:43;97843.75;;;16.36;58.31
35878;BME280;21982;49.804;24.072;2023-08-12T01:06:08;97789.41;;;15.97;58.24
35878;BME280;21982;49.804;24.072;2023-08-12T01:08:34;97864.91;;;16.44;58.20
35878;BME280;21982;49.804;24.072;2023-08-12T01:13:49;97862.84;;;16.46;57.79
35878;BME280;21982;49.804;24.072;2023-08-12T01:16:18;97850.94;;;16.35;58.04
35878;BME280;21982;49.804;24.072;2023-08-12T01:18:44;97867.19;;;16.40;57.92
35878;BME280;21982;49.804;24.072;2023-08-12T01:21:12;97868.59;;;16.43;57.98
35878;BME280;21982;49.804;24.072;2023-08-12T01:23:41;97859.38;;;16.39;57.97
35878;BME280;21982;49.804;24.072;2023-08-12T01:26:06;97841.56;;;16.20;57.99
35878;BME280;21982;49.804;24.072;2023-08-12T01:28:32;97802.53;;;16.05;58.08
35878;BME280;21982;49.804;24.072;2023-08-12T01:31:34;97759.50;;;15.75;57.87
35878;BME280;21982;49.804;24.072;2023-08-12T01:36:58;97864.94;;;16.31;57.82
35878;BME280;21982;49.804;24.072;2023-08-12T01:39:26;97827.19;;;16.07;58.08
35878;BME280;21982;49.804;24.072;2023-08-12T01:41:52;97822.28;;;16.04;58.14
35878;BME280;21982;49.804;24.072;2023-08-12T01:44:18;97855.72;;;16.27;58.23
35878;BME280;21982;49.804;24.072;2023-08-12T01:46:44;97822.28;;;16.04;58.00
35878;BME280;21982;49.804;24.072;2023-08-12T01:49:09;97854.91;;;16.26;57.81
35878;BME280;21982;49.804;24.072;2023-08-12T01:51:34;97822.06;;;15.99;57.77
35878;BME280;21982;49.804;24.072;2023-08-12T01:54:00;97868.88;;;16.28;57.62
35878;BME280;21982;49.804;24.072;2023-08-12T01:56:25;97840.75;;;16.13;57.81
35878;BME280;21982;49.804;24.072;2023-08-12T01:58:50;97833.38;;;16.08;57.47
35878;BME280;21982;49.804;24.072;2023-08-12T02:01:16;97814.06;;;15.99;57.41
35878;BME280;21982;49.804;24.072;2023-08-12T02:03:41;97867.63;;;16.31;57.33
35878;BME280;21982;49.804;24.072;2023-08-12T02:06:07;97870.28;;;16.31;57.49
35878;BME280;21982;49.804;24.072;2023-08-12T02:08:32;97779.44;;;15.73;57.51
35878;BME280;21982;49.804;24.072;2023-08-12T02:10:57;97814.47;;;15.96;57.44
35878;BME280;21982;49.804;24.072;2023-08-12T02:13:23;97868.06;;;16.28;57.43
35878;BME280;21982;49.804;24.072;2023-08-12T02:15:48;97847.75;;;16.14;57.71
35878;BME280;21982;49.804;24.072;2023-08-12T02:18:13;97847.75;;;16.07;57.59
35878;BME280;21982;49.804;24.072;2023-08-12T02:20:40;97872.38;;;16.22;57.67
35878;BME280;21982;49.804;24.072;2023-08-12T02:23:06;97790.94;;;15.67;57.75
35878;BME280;21982;49.804;24.072;2023-08-12T02:25:31;97874.03;;;16.17;57.66
35878;BME280;21982;49.804;24.072;2023-08-12T02:27:57;97876.09;;;16.15;57.91
35878;BME280;21982;49.804;24.072;2023-08-12T02:30:22;97782.31;;;15.52;57.78
35878;BME280;21982;49.804;24.072;2023-08-12T02:32:48;97827.28;;;15.81;57.80
35878;BME280;21982;49.804;24.072;2023-08-12T02:35:15;97877.13;;;16.14;57.58
35878;BME280;21982;49.804;24.072;2023-08-12T02:37:40;97879.81;;;16.14;57.75
35878;BME280;21982;49.804;24.072;2023-08-12T02:40:06;97804.91;;;15.69;57.64
35878;BME280;21982;49.804;24.072;2023-08-12T02:42:31;97776.78;;;15.47;57.67
35878;BME280;21982;49.804;24.072;2023-08-12T02:44:57;97888.03;;;16.12;57.74
35878;BME280;21982;49.804;24.072;2023-08-12T02:47:22;97851.88;;;15.96;57.65
35878;BME280;21982;49.804;24.072;2023-08-12T02:49:48;97886.59;;;16.09;57.65
35878;BME280;21982;49.804;24.072;2023-08-12T02:52:13;97835.09;;;15.76;57.97
35878;BME280;21982;49.804;24.072;2023-08-12T02:54:39;97856.84;;;15.93;57.85
35878;BME280;21982;49.804;24.072;2023-08-12T02:57:04;97875.28;;;16.01;57.86
35878;BME280;21982;49.804;24.072;2023-08-12T02:59:30;97784.56;;;15.41;57.85
35878;BME280;21982;49.804;24.072;2023-08-12T03:01:55;97861.78;;;15.89;57.96
35878;BME280;21982;49.804;24.072;2023-08-12T03:04:21;97887.84;;;16.00;57.94
35878;BME280;21982;49.804;24.072;2023-08-12T03:06:47;97805.72;;;15.50;57.95
35878;BME280;21982;49.804;24.072;2023-08-12T03:09:13;97796.06;;;15.42;58.03
35878;BME280;21982;49.804;24.072;2023-08-12T03:11:38;97894.63;;;15.96;58.43
35878;BME280;21982;49.804;24.072;2023-08-12T03:14:04;97887.88;;;15.94;58.68
35878;BME280;21982;49.804;24.072;2023-08-12T03:16:29;97885.19;;;15.94;58.81
35878;BME280;21982;49.804;24.072;2023-08-12T03:18:55;97856.03;;;15.72;58.77
35878;BME280;21982;49.804;24.072;2023-08-12T03:21:21;97872.06;;;15.79;58.70
35878;BME280;21982;49.804;24.072;2023-08-12T03:23:46;97888.66;;;15.94;58.76
35878;BME280;21982;49.804;24.072;2023-08-12T03:26:12;97886.22;;;15.93;58.96
35878;BME280;21982;49.804;24.072;2023-08-12T03:28:37;97859.72;;;15.78;58.90
35878;BME280;21982;49.804;24.072;2023-08-12T03:31:02;97898.94;;;15.97;58.94
35878;BME280;21982;49.804;24.072;2023-08-12T03:33:28;97824.41;;;15.50;59.26
35878;BME280;21982;49.804;24.072;2023-08-12T03:35:53;97842.06;;;15.64;59.55
35878;BME280;21982;49.804;24.072;2023-08-12T03:38:19;97892.16;;;16.01;59.66
35878;BME280;21982;49.804;24.072;2023-08-12T03:40:44;97887.41;;;16.03;59.66
35878;BME280;21982;49.804;24.072;2023-08-12T03:43:10;97858.09;;;15.84;59.43
35878;BME280;21982;49.804;24.072;2023-08-12T03:45:56;97896.88;;;16.13;59.37
35878;BME280;21982;49.804;24.072;2023-08-12T03:48:22;97888.44;;;16.02;59.76
35878;BME280;21982;49.804;24.072;2023-08-12T03:50:49;97893.78;;;16.16;59.71
35878;BME280;21982;49.804;24.072;2023-08-12T03:53:14;97858.88;;;15.97;59.56
35878;BME280;21982;49.804;24.072;2023-08-12T03:55:39;97881.44;;;16.15;59.61
35878;BME280;21982;49.804;24.072;2023-08-12T03:58:06;97898.28;;;16.28;59.63
35878;BME280;21982;49.804;24.072;2023-08-12T04:00:31;97876.91;;;16.22;59.66
35878;BME280;21982;49.804;24.072;2023-08-12T04:02:57;97794.63;;;15.79;59.49
35878;BME280;21982;49.804;24.072;2023-08-12T04:05:22;97890.81;;;16.43;59.53
35878;BME280;21982;49.804;24.072;2023-08-12T04:07:47;97893.69;;;16.49;59.44
35878;BME280;21982;49.804;24.072;2023-08-12T04:10:13;97822.06;;;16.06;59.25
35878;BME280;21982;49.804;24.072;2023-08-12T04:12:40;97875.56;;;16.51;59.37
35878;BME280;21982;49.804;24.072;2023-08-12T04:15:07;97858.34;;;16.40;59.20
35878;BME280;21982;49.804;24.072;2023-08-12T04:17:34;97900.81;;;16.74;59.16
35878;BME280;21982;49.804;24.072;2023-08-12T04:20:00;97886.22;;;16.70;59.09
35878;BME280;21982;49.804;24.072;2023-08-12T04:22:25;97811.25;;;16.39;58.89
35878;BME280;21982;49.804;24.072;2023-08-12T04:24:51;97899.19;;;17.05;58.80
35878;BME280;21982;49.804;24.072;2023-08-12T04:27:16;97815.47;;;16.66;58.73
35878;BME280;21982;49.804;24.072;2023-08-12T04:29:42;97865.38;;;17.17;58.71
35878;BME280;21982;49.804;24.072;2023-08-12T04:32:08;97905.69;;;17.54;58.51
35878;BME280;21982;49.804;24.072;2023-08-12T04:34:33;97904.56;;;17.68;58.39
35878;BME280;21982;49.804;24.072;2023-08-12T04:36:59;97904.03;;;17.84;57.90
35878;BME280;21982;49.804;24.072;2023-08-12T04:39:24;97911.53;;;18.00;57.98
35878;BME280;21982;49.804;24.072;2023-08-12T04:41:50;97880.31;;;17.88;57.66
35878;BME280;21982;49.804;24.072;2023-08-12T04:44:16;97859.31;;;18.03;57.53
35878;BME280;21982;49.804;24.072;2023-08-12T04:46:41;97886.13;;;18.39;57.42
35878;BME280;21982;49.804;24.072;2023-08-12T04:49:06;97897.94;;;18.57;57.41
35878;BME280;21982;49.804;24.072;2023-08-12T04:51:32;97833.34;;;18.40;56.91
35878;BME280;21982;49.804;24.072;2023-08-12T04:53:57;97894.13;;;19.13;56.34
35878;BME280;21982;49.804;24.072;2023-08-12T04:56:23;97902.69;;;19.51;55.79
35878;BME280;21982;49.804;24.072;2023-08-12T04:58:49;97844.69;;;19.43;55.25
35878;BME280;21982;49.804;24.072;2023-08-12T05:01:14;97879.63;;;20.08;54.82
35878;BME280;21982;49.804;24.072;2023-08-12T05:03:40;97889.38;;;20.61;53.42
35878;BME280;21982;49.804;24.072;2023-08-12T05:06:05;97827.97;;;20.87;52.17
35878;BME280;21982;49.804;24.072;2023-08-12T05:08:31;97884.78;;;21.76;51.38
35878;BME280;21982;49.804;24.072;2023-08-12T05:10:56;97907.75;;;22.50;50.82
35878;BME280;21982;49.804;24.072;2023-08-12T05:13:22;97873.63;;;22.83;49.82
35878;BME280;21982;49.804;24.072;2023-08-12T05:15:49;97903.16;;;23.70;48.61
35878;BME280;21982;49.804;24.072;2023-08-12T05:18:14;97906.94;;;24.38;47.41
35878;BME280;21982;49.804;24.072;2023-08-12T05:20:42;97872.72;;;24.74;46.66
35878;BME280;21982;49.804;24.072;2023-08-12T05:23:08;97908.72;;;25.47;45.39
35878;BME280;21982;49.804;24.072;2023-08-12T05:25:34;97905.50;;;26.01;44.50
35878;BME280;21982;49.804;24.072;2023-08-12T05:27:59;97862.31;;;26.25;43.53
35878;BME280;21982;49.804;24.072;2023-08-12T05:30:25;97864.88;;;26.76;43.09
35878;BME280;21982;49.804;24.072;2023-08-12T05:32:52;97909.63;;;27.48;42.42
35878;BME280;21982;49.804;24.072;2023-08-12T05:35:17;97871.88;;;27.80;41.13
35878;BME280;21982;49.804;24.072;2023-08-12T05:37:42;97904.50;;;28.43;40.30
35878;BME280;21982;49.804;24.072;2023-08-12T05:40:09;97906.97;;;28.68;39.56
35878;BME280;21982;49.804;24.072;2023-08-12T05:42:35;97867.03;;;28.78;38.53
35878;BME280;21982;49.804;24.072;2023-08-12T05:45:01;97906.44;;;29.52;37.62
35878;BME280;21982;49.804;24.072;2023-08-12T05:47:26;97895.25;;;29.72;36.83
35878;BME280;21982;49.804;24.072;2023-08-12T05:49:51;97899.84;;;30.09;36.48
35878;BME280;21982;49.804;24.072;2023-08-12T05:52:17;97874.53;;;30.17;35.70
35878;BME280;21982;49.804;24.072;2023-08-12T05:54:42;97912.78;;;30.77;35.20
35878;BME280;21982;49.804;24.072;2023-08-12T05:57:08;97890.63;;;30.79;34.68
35878;BME280;21982;49.804;24.072;2023-08-12T05:59:33;97904.06;;;31.03;33.78
35878;BME280;21982;49.804;24.072;2023-08-12T06:01:58;97911.28;;;31.12;33.75
35878;BME280;21982;49.804;24.072;2023-08-12T06:04:24;97818.72;;;30.78;33.45
35878;BME280;21982;49.804;24.072;2023-08-12T06:06:50;97879.19;;;31.62;32.45
35878;BME280;21982;49.804;24.072;2023-08-12T06:09:16;97862.63;;;31.81;32.23
35878;BME280;21982;49.804;24.072;2023-08-12T06:11:43;97798.38;;;31.87;31.84
35878;BME280;21982;49.804;24.072;2023-08-12T06:14:08;97802.19;;;32.48;30.73
35878;BME280;21982;49.804;24.072;2023-08-12T06:16:34;97908.25;;;33.36;30.29
35878;BME280;21982;49.804;24.072;2023-08-12T06:19:00;97897.78;;;33.63;29.58
35878;BME280;21982;49.804;24.072;2023-08-12T06:21:25;97780.69;;;33.07;29.18
35878;BME280;21982;49.804;24.072;2023-08-12T06:23:51;97679.78;;;32.70;28.97
35878;BME280;21982;49.804;24.072;2023-08-12T06:26:16;97866.03;;;34.26;28.58
35878;BME280;21982;49.804;24.072;2023-08-12T06:28:41;97840.50;;;34.17;28.33
35878;BME280;21982;49.804;24.072;2023-08-12T06:31:07;97679.28;;;33.37;27.90
35878;BME280;21982;49.804;24.072;2023-08-12T06:33:32;97896.78;;;34.67;28.65
35878;BME280;21982;49.804;24.072;2023-08-12T06:35:57;97843.91;;;34.06;28.58
35878;BME280;21982;49.804;24.072;2023-08-12T06:38:23;97902.91;;;34.25;29.01
35878;BME280;21982;49.804;24.072;2023-08-12T06:40:48;97884.97;;;34.19;29.06
35878;BME280;21982;49.804;24.072;2023-08-12T06:43:14;97898.69;;;34.28;28.52
35878;BME280;21982;49.804;24.072;2023-08-12T06:45:39;97896.59;;;34.25;28.71
35878;BME280;21982;49.804;24.072;2023-08-12T06:48:05;97880.09;;;34.25;29.05
35878;BME280;21982;49.804;24.072;2023-08-12T06:50:30;97899.19;;;34.68;28.57
35878;BME280;21982;49.804;24.072;2023-08-12T06:52:57;97827.59;;;34.09;28.87
35878;BME280;21982;49.804;24.072;2023-08-12T06:55:22;97873.03;;;34.07;28.42
35878;BME280;21982;49.804;24.072;2023-08-12T06:57:48;97871.56;;;34.09;28.87
35878;BME280;21982;49.804;24.072;2023-08-12T07:00:13;97885.06;;;34.49;28.54
35878;BME280;21982;49.804;24.072;2023-08-12T07:02:39;97892.81;;;35.14;27.50
35878;BME280;21982;49.804;24.072;2023-08-12T07:05:07;97896.50;;;35.48;27.17
35878;BME280;21982;49.804;24.072;2023-08-12T07:07:32;97855.56;;;35.17;28.04
35878;BME280;21982;49.804;24.072;2023-08-12T07:09:57;97860.53;;;35.23;26.95
35878;BME280;21982;49.804;24.072;2023-08-12T07:12:23;97894.59;;;35.40;26.73
35878;BME280;21982;49.804;24.072;2023-08-12T07:14:48;97861.66;;;35.31;26.61
35878;BME280;21982;49.804;24.072;2023-08-12T07:17:17;97856.06;;;35.60;26.69
35878;BME280;21982;49.804;24.072;2023-08-12T07:19:42;97853.28;;;35.81;26.18
35878;BME280;21982;49.804;24.072;2023-08-12T07:22:07;97886.06;;;36.28;25.85
35878;BME280;21982;49.804;24.072;2023-08-12T07:24:33;97893.88;;;36.26;26.09
35878;BME280;21982;49.804;24.072;2023-08-12T07:26:58;97888.03;;;36.07;26.75
35878;BME280;21982;49.804;24.072;2023-08-12T07:29:23;97851.50;;;35.77;25.41
35878;BME280;21982;49.804;24.072;2023-08-12T07:31:49;97877.19;;;35.89;25.95
35878;BME280;21982;49.804;24.072;2023-08-12T07:34:14;97877.59;;;35.79;25.88
35878;BME280;21982;49.804;24.072;2023-08-12T07:36:40;97853.28;;;35.40;26.00
35878;BME280;21982;49.804;24.072;2023-08-12T07:39:05;97853.78;;;35.42;25.68
35878;BME280;21982;49.804;24.072;2023-08-12T07:41:31;97757.84;;;35.02;24.73
35878;BME280;21982;49.804;24.072;2023-08-12T07:43:57;97825.22;;;35.46;24.76
35878;BME280;21982;49.804;24.072;2023-08-12T07:46:22;97870.63;;;35.61;24.93
35878;BME280;21982;49.804;24.072;2023-08-12T07:48:48;97874.31;;;35.86;25.01
35878;BME280;21982;49.804;24.072;2023-08-12T07:51:13;97868.84;;;35.77;25.69
35878;BME280;21982;49.804;24.072;2023-08-12T07:53:39;97862.63;;;35.47;26.01
35878;BME280;21982;49.804;24.072;2023-08-12T07:56:04;97860.41;;;35.82;25.38
35878;BME280;21982;49.804;24.072;2023-08-12T07:58:29;97855.63;;;35.91;25.07
35878;BME280;21982;49.804;24.072;2023-08-12T08:00:55;97873.03;;;35.83;24.98
35878;BME280;21982;49.804;24.072;2023-08-12T08:03:20;97843.44;;;35.72;25.03
35878;BME280;21982;49.804;24.072;2023-08-12T08:05:46;97865.13;;;35.61;24.96
35878;BME280;21982;49.804;24.072;2023-08-12T08:08:12;97878.22;;;35.64;25.31
35878;BME280;21982;49.804;24.072;2023-08-12T08:10:38;97859.06;;;35.68;25.12
35878;BME280;21982;49.804;24.072;2023-08-12T08:13:03;97873.88;;;35.75;25.18
35878;BME280;21982;49.804;24.072;2023-08-12T08:15:28;97851.00;;;35.63;25.57
35878;BME280;21982;49.804;24.072;2023-08-12T08:17:54;97871.00;;;35.92;24.21
35878;BME280;21982;49.804;24.072;2023-08-12T08:20:20;97866.22;;;36.14;23.96
35878;BME280;21982;49.804;24.072;2023-08-12T08:22:46;97865.84;;;36.48;23.82
35878;BME280;21982;49.804;24.072;2023-08-12T08:25:12;97862.56;;;36.22;23.92
35878;BME280;21982;49.804;24.072;2023-08-12T08:27:39;97787.44;;;35.35;24.36
35878;BME280;21982;49.804;24.072;2023-08-12T08:30:06;97870.78;;;35.77;24.26
35878;BME280;21982;49.804;24.072;2023-08-12T08:32:31;97870.06;;;35.88;24.56
35878;BME280;21982;49.804;24.072;2023-08-12T08:34:57;97871.16;;;36.66;22.74
35878;BME280;21982;49.804;24.072;2023-08-12T08:37:23;97836.44;;;36.77;22.66
35878;BME280;21982;49.804;24.072;2023-08-12T08:39:49;97826.31;;;36.56;22.83
35878;BME280;21982;49.804;24.072;2023-08-12T08:42:15;97834.38;;;36.74;22.43
35878;BME280;21982;49.804;24.072;2023-08-12T08:44:42;97873.81;;;36.74;22.44
35878;BME280;21982;49.804;24.072;2023-08-12T08:47:08;97842.88;;;36.32;22.83
35878;BME280;21982;49.804;24.072;2023-08-12T08:49:34;97824.69;;;36.43;22.39
35878;BME280;21982;49.804;24.072;2023-08-12T08:52:01;97857.41;;;37.42;21.96
35878;BME280;21982;49.804;24.072;2023-08-12T08:54:27;97862.06;;;37.54;21.50
35878;BME280;21982;49.804;24.072;2023-08-12T08:56:53;97857.81;;;36.92;21.77
35878;BME280;21982;49.804;24.072;2023-08-12T08:59:20;97865.88;;;36.61;22.33
35878;BME280;21982;49.804;24.072;2023-08-12T09:01:49;97857.59;;;36.36;22.70
35878;BME280;21982;49.804;24.072;2023-08-12T09:04:17;97834.66;;;36.23;21.60
35878;BME280;21982;49.804;24.072;2023-08-12T09:06:43;97855.28;;;36.50;21.61
35878;BME280;21982;49.804;24.072;2023-08-12T09:09:12;97849.94;;;37.18;20.47
35878;BME280;21982;49.804;24.072;2023-08-12T09:11:40;97853.63;;;37.75;21.13
35878;BME280;21982;49.804;24.072;2023-08-12T09:14:06;97829.97;;;38.52;19.53
35878;BME280;21982;49.804;24.072;2023-08-12T09:19:07;97862.69;;;38.63;20.48
35878;BME280;21982;49.804;24.072;2023-08-12T09:21:32;97853.53;;;39.09;19.58
35878;BME280;21982;49.804;24.072;2023-08-12T09:24:02;97803.56;;;38.08;19.92
35878;BME280;21982;49.804;24.072;2023-08-12T09:26:28;97847.69;;;37.48;19.85
35878;BME280;21982;49.804;24.072;2023-08-12T09:28:54;97793.16;;;37.05;21.15
35878;BME280;21982;49.804;24.072;2023-08-12T09:31:23;97851.50;;;37.44;21.27
35878;BME280;21982;49.804;24.072;2023-08-12T09:33:50;97845.63;;;37.05;21.20
35878;BME280;21982;49.804;24.072;2023-08-12T09:36:16;97840.09;;;37.05;20.74
35878;BME280;21982;49.804;24.072;2023-08-12T09:38:42;97837.44;;;37.21;21.05
35878;BME280;21982;49.804;24.072;2023-08-12T09:41:09;97832.75;;;36.85;21.49
35878;BME280;21982;49.804;24.072;2023-08-12T09:43:35;97826.25;;;36.20;21.85
35878;BME280;21982;49.804;24.072;2023-08-12T09:48:40;97828.28;;;35.03;21.79
35878;BME280;21982;49.804;24.072;2023-08-12T09:51:06;97774.72;;;35.21;21.70
35878;BME280;21982;49.804;24.072;2023-08-12T09:53:32;97833.22;;;36.38;20.69
35878;BME280;21982;49.804;24.072;2023-08-12T09:56:22;97820.31;;;36.42;20.75
35878;BME280;21982;49.804;24.072;2023-08-12T09:58:49;97837.13;;;36.98;20.46
35878;BME280;21982;49.804;24.072;2023-08-12T10:01:18;97830.06;;;38.09;19.35
35878;BME280;21982;49.804;24.072;2023-08-12T10:03:50;97827.31;;;38.72;19.94
35878;BME280;21982;49.804;24.072;2023-08-12T10:06:19;97824.31;;;38.96;18.96
35878;BME280;21982;49.804;24.072;2023-08-12T10:08:46;97823.38;;;38.73;19.32
35878;BME280;21982;49.804;24.072;2023-08-12T10:11:12;97817.84;;;38.10;19.12
35878;BME280;21982;49.804;24.072;2023-08-12T10:13:42;97821.34;;;37.79;19.78
35878;BME280;21982;49.804;24.072;2023-08-12T10:16:10;97821.28;;;37.75;19.57
35878;BME280;21982;49.804;24.072;2023-08-12T10:18:39;97770.63;;;37.03;19.67
35878;BME280;21982;49.804;24.072;2023-08-12T10:21:06;97806.06;;;36.52;20.05
35878;BME280;21982;49.804;24.072;2023-08-12T10:23:34;97786.88;;;34.70;20.74
35878;BME280;21982;49.804;24.072;2023-08-12T10:25:59;97787.97;;;34.78;21.29
35878;BME280;21982;49.804;24.072;2023-08-12T10:28:26;97815.75;;;35.89;20.53
35878;BME280;21982;49.804;24.072;2023-08-12T10:30:52;97806.00;;;36.73;19.77
35878;BME280;21982;49.804;24.072;2023-08-12T10:33:17;97751.75;;;37.05;19.64
35878;BME280;21982;49.804;24.072;2023-08-12T10:35:45;97805.16;;;37.65;19.12
35878;BME280;21982;49.804;24.072;2023-08-12T10:38:17;97820.72;;;37.17;19.70
35878;BME280;21982;49.804;24.072;2023-08-12T10:40:43;97811.38;;;36.70;20.41
35878;BME280;21982;49.804;24.072;2023-08-12T10:43:08;97815.56;;;35.73;20.82
35878;BME280;21982;49.804;24.072;2023-08-12T10:45:47;97811.03;;;36.47;20.40
35878;BME280;21982;49.804;24.072;2023-08-12T10:48:23;97812.38;;;37.02;20.06
35878;BME280;21982;49.804;24.072;2023-08-12T10:50:52;97808.19;;;38.04;20.47
35878;BME280;21982;49.804;24.072;2023-08-12T10:53:29;97790.72;;;38.00;19.70
35878;BME280;21982;49.804;24.072;2023-08-12T10:55:58;97777.09;;;36.46;20.20
35878;BME280;21982;49.804;24.072;2023-08-12T10:58:48;97804.28;;;35.33;21.06
35878;BME280;21982;49.804;24.072;2023-08-12T11:01:19;97798.75;;;35.12;21.73
35878;BME280;21982;49.804;24.072;2023-08-12T11:03:45;97795.84;;;36.29;20.88
35878;BME280;21982;49.804;24.072;2023-08-12T11:06:11;97791.97;;;37.18;20.58
35878;BME280;21982;49.804;24.072;2023-08-12T11:08:41;97791.34;;;36.85;19.79
35878;BME280;21982;49.804;24.072;2023-08-12T11:11:19;97763.63;;;35.09;20.91
35878;BME280;21982;49.804;24.072;2023-08-12T11:13:56;97788.41;;;33.66;22.16
35878;BME280;21982;49.804;24.072;2023-08-12T11:16:32;97744.69;;;33.35;22.23
35878;BME280;21982;49.804;24.072;2023-08-12T11:18:59;97774.13;;;34.36;22.46
35878;BME280;21982;49.804;24.072;2023-08-12T11:21:25;97781.19;;;34.08;22.98
35878;BME280;21982;49.804;24.072;2023-08-12T11:23:54;97775.84;;;33.56;22.99
35878;BME280;21982;49.804;24.072;2023-08-12T11:26:22;97779.81;;;33.76;23.36
35878;BME280;21982;49.804;24.072;2023-08-12T11:28:48;97742.16;;;33.76;23.44
35878;BME280;21982;49.804;24.072;2023-08-12T11:31:14;97748.88;;;32.97;23.51
35878;BME280;21982;49.804;24.072;2023-08-12T11:33:39;97763.53;;;32.19;24.33
35878;BME280;21982;49.804;24.072;2023-08-12T11:36:05;97777.53;;;31.33;24.92
35878;BME280;21982;49.804;24.072;2023-08-12T11:38:31;97748.97;;;30.40;25.22
35878;BME280;21982;49.804;24.072;2023-08-12T11:40:56;97773.47;;;30.04;26.69
35878;BME280;21982;49.804;24.072;2023-08-12T11:43:22;97776.31;;;29.66;26.55
35878;BME280;21982;49.804;24.072;2023-08-12T11:45:48;97759.44;;;29.64;27.04
35878;BME280;21982;49.804;24.072;2023-08-12T11:48:14;97753.13;;;29.50;26.97
35878;BME280;21982;49.804;24.072;2023-08-12T11:50:39;97769.16;;;29.19;27.41
35878;BME280;21982;49.804;24.072;2023-08-12T11:53:05;97772.94;;;28.85;27.96
35878;BME280;21982;49.804;24.072;2023-08-12T11:55:31;97747.75;;;28.32;28.66
35878;BME280;21982;49.804;24.072;2023-08-12T11:57:58;97771.03;;;28.19;28.91
35878;BME280;21982;49.804;24.072;2023-08-12T12:00:24;97757.31;;;28.06;28.59
35878;BME280;21982;49.804;24.072;2023-08-12T12:02:54;97731.16;;;27.81;29.66
35878;BME280;21982;49.804;24.072;2023-08-12T12:05:25;97717.31;;;29.05;28.21
35878;BME280;21982;49.804;24.072;2023-08-12T12:07:51;97727.78;;;30.73;27.12
35878;BME280;21982;49.804;24.072;2023-08-12T12:10:35;97738.06;;;32.75;25.18
35878;BME280;21982;49.804;24.072;2023-08-12T12:13:02;97757.19;;;34.25;24.02
35878;BME280;21982;49.804;24.072;2023-08-12T12:15:28;97755.09;;;33.76;23.05
35878;BME280;21982;49.804;24.072;2023-08-12T12:17:54;97757.94;;;33.33;24.17
35878;BME280;21982;49.804;24.072;2023-08-12T12:20:19;97752.84;;;32.65;24.64
35878;BME280;21982;49.804;24.072;2023-08-12T12:22:47;97723.31;;;31.66;25.54
35878;BME280;21982;49.804;24.072;2023-08-12T12:25:14;97739.28;;;31.42;25.97
35878;BME280;21982;49.804;24.072;2023-08-12T12:27:41;97696.59;;;30.74;26.20
35878;BME280;21982;49.804;24.072;2023-08-12T12:30:11;97758.69;;;30.73;26.36
35878;BME280;21982;49.804;24.072;2023-08-12T12:32:37;97662.81;;;29.65;26.52
35878;BME280;21982;49.804;24.072;2023-08-12T12:35:03;97749.25;;;29.70;27.09
35878;BME280;21982;49.804;24.072;2023-08-12T12:37:29;97733.59;;;29.10;27.58
35878;BME280;21982;49.804;24.072;2023-08-12T12:39:55;97715.16;;;28.64;28.55
35878;BME280;21982;49.804;24.072;2023-08-12T12:42:20;97749.81;;;28.83;28.39
35878;BME280;21982;49.804;24.072;2023-08-12T12:44:45;97746.00;;;29.81;27.89
35878;BME280;21982;49.804;24.072;2023-08-12T12:47:11;97673.09;;;29.95;27.68
35878;BME280;21982;49.804;24.072;2023-08-12T12:49:38;97688.56;;;29.86;27.73
35878;BME280;21982;49.804;24.072;2023-08-12T12:52:04;97700.16;;;29.18;28.14
35878;BME280;21982;49.804;24.072;2023-08-12T12:54:29;97738.69;;;28.98;27.91
35878;BME280;21982;49.804;24.072;2023-08-12T12:56:56;97684.00;;;28.33;28.54